Time;durP1;ratioP1;P1;durP2;ratioP2;P2;SDS_P1;SDS_P2;PMS_P1;PMS_P2;Temp;Humidity;BMP_temperature;BMP_pressure;BME280_temperature;BME280_humidity;BME280_pressure;Samples;Min_cycle;Max_cycle;Signal;HPM_P1;HPM_P2
2021/08/18 00:01:24;;;;;;;16.10;9.38;;;;;;;19.08;69.06;99518.47;4980646;28;20042;-77
2021/08/18 00:03:50;;;;;;;20.58;10.63;;;;;;;19.02;69.08;99504.75;5010902;28;20452;-80
2021/08/18 00:06:17;;;;;;;17.48;9.88;;;;;;;19.02;69.15;99515.28;5011632;28;20034;-79
2021/08/18 00:08:45;;;;;;;20.40;9.35;;;;;;;18.90;69.37;99500.88;4994861;28;20140;-77
2021/08/18 00:11:11;;;;;;;17.73;9.88;;;;;;;18.96;69.49;99513.81;5011678;28;20041;-79
2021/08/18 00:13:37;;;;;;;19.35;9.98;;;;;;;18.93;69.51;99516.56;5011376;28;20045;-78
2021/08/18 00:16:03;;;;;;;16.77;9.57;;;;;;;18.78;69.60;99492.63;5010790;28;20061;-77
2021/08/18 00:18:29;;;;;;;24.98;10.48;;;;;;;18.86;69.65;99516.00;5010209;28;20037;-78
2021/08/18 00:20:55;;;;;;;16.75;9.93;;;;;;;18.78;69.82;99510.25;5013807;28;20099;-76
2021/08/18 00:23:22;;;;;;;18.27;10.23;;;;;;;18.79;69.97;99514.59;4980304;28;20057;-78
2021/08/18 00:25:47;;;;;;;22.52;10.15;;;;;;;18.75;70.15;99513.00;4979849;28;20058;-77
2021/08/18 00:28:13;;;;;;;21.58;10.32;;;;;;;18.71;70.20;99500.91;5012405;28;20184;-76
2021/08/18 00:30:39;;;;;;;20.77;10.50;;;;;;;18.73;70.33;99505.19;5013616;28;20076;-76
2021/08/18 00:33:05;;;;;;;19.55;10.75;;;;;;;18.74;70.49;99506.03;5014873;28;21029;-78
2021/08/18 00:35:34;;;;;;;20.45;10.20;;;;;;;18.72;70.60;99506.13;5013202;28;20053;-76
2021/08/18 00:37:59;;;;;;;21.25;10.85;;;;;;;18.72;70.75;99503.47;5011101;28;20053;-79
2021/08/18 00:40:25;;;;;;;18.63;10.98;;;;;;;18.60;70.69;99477.69;5011876;28;20045;-77
2021/08/18 00:42:51;;;;;;;22.95;11.38;;;;;;;18.64;70.91;99488.03;4979977;28;20046;-76
2021/08/18 00:45:18;;;;;;;25.80;11.75;;;;;;;18.71;71.02;99500.91;4999393;28;20034;-80
2021/08/18 00:47:47;;;;;;;21.48;11.10;;;;;;;18.59;71.14;99479.50;5011207;28;20525;-76
2021/08/18 00:50:17;;;;;;;19.10;11.13;;;;;;;18.58;71.25;99476.91;4996505;28;20042;-75
2021/08/18 00:52:43;;;;;;;18.92;10.32;;;;;;;18.57;71.01;99483.97;4994181;28;20501;-77
2021/08/18 00:55:16;;;;;;;19.17;10.85;;;;;;;18.60;71.26;99491.75;4999596;28;20045;-78
2021/08/18 00:57:42;;;;;;;20.50;10.73;;;;;;;18.56;71.25;99484.03;4997752;28;20041;-79
2021/08/18 01:00:10;;;;;;;18.90;10.45;;;;;;;18.63;71.28;99493.38;5024130;28;20052;-78
2021/08/18 01:02:37;;;;;;;21.75;11.25;;;;;;;18.49;71.42;99476.44;5008209;28;20045;-76
2021/08/18 01:05:14;;;;;;;24.85;11.48;;;;;;;18.54;71.57;99484.13;5017518;28;20145;-81
2021/08/18 01:07:39;;;;;;;21.35;11.48;;;;;;;18.57;71.61;99489.25;5017788;28;20053;-76
2021/08/18 01:10:08;;;;;;;18.90;10.52;;;;;;;18.44;71.77;99467.03;4998756;28;20081;-75
2021/08/18 01:12:35;;;;;;;20.38;12.00;;;;;;;18.54;71.72;99484.13;5003250;28;20088;-78
2021/08/18 01:15:10;;;;;;;17.92;10.70;;;;;;;18.53;71.98;99490.31;5008888;28;20050;-77
2021/08/18 01:17:50;;;;;;;22.98;11.27;;;;;;;18.53;71.95;99485.03;5015561;28;20061;-79
2021/08/18 01:20:23;;;;;;;21.40;10.73;;;;;;;18.43;71.80;99465.31;5034497;28;20053;-77
2021/08/18 01:22:50;;;;;;;21.85;11.23;;;;;;;18.43;72.14;99479.34;5012675;28;20048;-79
2021/08/18 01:25:16;;;;;;;20.20;11.13;;;;;;;18.51;72.10;99481.63;5038393;28;20045;-75
2021/08/18 01:27:48;;;;;;;17.15;9.57;;;;;;;18.49;71.93;99486.09;5038893;28;20038;-75
2021/08/18 01:30:16;;;;;;;19.05;10.48;;;;;;;18.47;72.14;99490.59;5026450;28;20081;-75
2021/08/18 01:32:52;;;;;;;20.45;10.15;;;;;;;18.44;72.05;99482.81;5014690;28;20042;-75
2021/08/18 01:35:23;;;;;;;19.55;10.63;;;;;;;18.38;72.03;99477.88;4997319;28;20132;-76
2021/08/18 01:37:50;;;;;;;22.17;11.50;;;;;;;18.24;72.11;99460.06;5029917;28;20045;-77
2021/08/18 01:40:16;;;;;;;18.20;10.52;;;;;;;18.35;72.04;99492.88;5012960;28;20536;-74
2021/08/18 01:42:42;;;;;;;18.10;10.48;;;;;;;18.31;72.27;99491.31;4992726;28;20038;-76
2021/08/18 01:45:10;;;;;;;20.15;10.93;;;;;;;18.22;72.04;99496.97;4994563;28;20042;-76
2021/08/18 01:47:36;;;;;;;20.10;10.57;;;;;;;18.16;72.08;99497.28;4993997;28;20041;-77
2021/08/18 01:50:02;;;;;;;22.73;10.45;;;;;;;18.08;72.23;99496.75;4992933;28;20042;-77
2021/08/18 01:52:28;;;;;;;18.38;10.60;;;;;;;18.07;72.38;99501.19;4993119;28;20045;-76
2021/08/18 01:54:54;;;;;;;23.88;12.05;;;;;;;17.95;72.34;99484.13;4994370;28;20131;-79
2021/08/18 01:57:20;;;;;;;24.42;12.52;;;;;;;18.04;72.37;99503.94;4995530;28;20535;-76
2021/08/18 01:59:46;;;;;;;19.80;11.52;;;;;;;18.03;72.84;99505.72;4993946;28;20038;-76
2021/08/18 02:02:14;;;;;;;27.90;12.25;;;;;;;17.90;72.68;99481.69;4994495;28;20045;-75
2021/08/18 02:04:40;;;;;;;21.63;9.98;;;;;;;18.01;72.81;99496.19;4993495;28;20137;-77
2021/08/18 02:07:06;;;;;;;22.88;10.18;;;;;;;17.99;72.89;99501.50;5009608;28;20251;-75
2021/08/18 02:09:32;;;;;;;22.65;12.07;;;;;;;17.89;72.91;99487.03;5007464;28;20063;-76
2021/08/18 02:11:57;;;;;;;22.15;12.18;;;;;;;17.87;72.97;99481.84;4996047;28;20038;-75
2021/08/18 02:14:23;;;;;;;24.38;10.70;;;;;;;17.90;73.03;99494.84;5013590;28;20449;-75
2021/08/18 02:16:49;;;;;;;29.55;12.85;;;;;;;17.79;72.83;99470.78;5012372;28;20045;-76
2021/08/18 02:19:15;;;;;;;21.08;10.75;;;;;;;17.87;72.90;99488.88;5013309;28;20045;-77
2021/08/18 02:21:40;;;;;;;26.27;12.60;;;;;;;17.95;73.14;99509.56;5028438;28;20454;-76
2021/08/18 02:24:06;;;;;;;26.95;11.60;;;;;;;17.93;73.09;99504.41;5011976;28;20081;-77
2021/08/18 02:26:32;;;;;;;23.50;12.15;;;;;;;17.88;72.78;99507.22;4995354;28;20041;-79
2021/08/18 02:28:58;;;;;;;26.98;12.85;;;;;;;17.81;72.83;99489.13;5027880;28;20514;-77
2021/08/18 02:31:27;;;;;;;22.92;13.13;;;;;;;17.90;73.14;99507.16;5013110;28;20033;-75
2021/08/18 02:33:53;;;;;;;23.35;12.60;;;;;;;17.90;73.12;99496.63;5012514;28;20053;-77
2021/08/18 02:36:19;;;;;;;26.95;14.48;;;;;;;17.97;73.14;99505.09;5012104;28;20498;-75
2021/08/18 02:38:45;;;;;;;33.15;15.77;;;;;;;17.95;73.31;99496.41;5012903;28;20076;-76
2021/08/18 02:41:11;;;;;;;24.67;12.50;;;;;;;18.08;73.35;99507.28;5028386;28;20041;-77
2021/08/18 02:43:37;;;;;;;37.85;20.13;;;;;;;18.03;73.39;99504.88;5027988;28;20095;-76
2021/08/18 02:46:03;;;;;;;36.30;20.58;;;;;;;18.09;73.38;99514.25;5012730;28;20049;-77
2021/08/18 02:48:29;;;;;;;32.65;18.83;;;;;;;18.18;73.61;99525.25;5011553;28;20124;-75
2021/08/18 02:50:57;;;;;;;30.17;18.77;;;;;;;18.13;73.32;99514.06;5012912;28;20393;-75
2021/08/18 02:53:24;;;;;;;40.83;21.10;;;;;;;17.96;73.37;99477.06;5012388;28;20041;-78
2021/08/18 02:55:50;;;;;;;40.95;21.85;;;;;;;18.19;73.55;99515.56;4995803;28;20033;-77
2021/08/18 02:58:16;;;;;;;44.08;23.63;;;;;;;18.18;73.72;99503.34;5016382;28;20065;-76
2021/08/18 03:00:41;;;;;;;37.15;21.55;;;;;;;18.29;73.90;99505.47;5013368;28;20042;-77
2021/08/18 03:03:07;;;;;;;35.97;20.00;;;;;;;18.36;73.61;99512.16;5014132;28;20570;-77
2021/08/18 03:05:33;;;;;;;34.42;19.20;;;;;;;18.39;74.01;99506.75;4980203;28;20168;-77
2021/08/18 03:07:59;;;;;;;33.47;19.23;;;;;;;18.46;73.67;99513.47;5019134;28;20061;-75
2021/08/18 03:10:25;;;;;;;41.28;20.92;;;;;;;18.58;73.74;99525.22;5000274;28;20045;-78
2021/08/18 03:12:51;;;;;;;36.63;21.05;;;;;;;18.57;73.71;99506.81;5024761;28;20084;-78
2021/08/18 03:15:16;;;;;;;29.05;17.45;;;;;;;18.60;73.61;99504.91;5029650;28;20049;-76
2021/08/18 03:17:42;;;;;;;25.17;15.75;;;;;;;18.64;73.49;99493.31;4995428;28;20045;-77
2021/08/18 03:20:09;;;;;;;25.75;15.55;;;;;;;18.83;72.93;99516.16;5011124;28;20422;-76
2021/08/18 03:22:35;;;;;;;25.70;14.50;;;;;;;18.91;73.47;99515.78;5012740;28;20046;-78
2021/08/18 03:25:01;;;;;;;21.27;13.35;;;;;;;19.01;73.21;99511.78;5010708;28;20460;-75
2021/08/18 03:27:26;;;;;;;23.50;13.18;;;;;;;19.09;73.17;99509.66;5011102;28;20252;-77
2021/08/18 03:29:52;;;;;;;22.05;12.43;;;;;;;19.21;72.81;99516.09;5016803;28;20045;-76
2021/08/18 03:32:18;;;;;;;22.45;12.60;;;;;;;19.31;72.67;99508.59;5048418;28;20041;-77
2021/08/18 03:34:43;;;;;;;25.90;12.40;;;;;;;19.41;72.49;99514.25;5033514;28;20064;-77
2021/08/18 03:37:09;;;;;;;23.65;12.73;;;;;;;19.41;72.17;99501.94;5028261;28;20037;-77
2021/08/18 03:39:35;;;;;;;18.02;11.32;;;;;;;19.40;71.97;99494.94;5012791;28;20050;-76
2021/08/18 03:42:01;;;;;;;26.23;12.27;;;;;;;19.61;72.07;99510.63;5011515;28;20046;-77
2021/08/18 03:44:26;;;;;;;22.92;12.13;;;;;;;19.69;71.81;99507.59;5011851;28;20037;-77
2021/08/18 03:46:52;;;;;;;23.42;12.88;;;;;;;19.83;71.48;99512.16;5011717;28;20029;-77
2021/08/18 03:49:18;;;;;;;24.67;13.10;;;;;;;19.95;71.40;99506.25;5010588;28;20071;-77
2021/08/18 03:51:43;;;;;;;25.40;12.18;;;;;;;20.00;71.17;99506.88;5011018;28;20041;-77
2021/08/18 03:54:09;;;;;;;22.33;12.65;;;;;;;20.08;70.92;99497.69;5013222;28;20135;-75
2021/08/18 03:56:35;;;;;;;19.20;11.63;;;;;;;20.19;70.45;99502.41;5013838;28;20505;-77
2021/08/18 03:59:00;;;;;;;19.27;10.70;;;;;;;20.36;70.58;99499.69;5012290;28;20100;-76
2021/08/18 04:01:26;;;;;;;20.08;10.15;;;;;;;20.40;70.18;99485.38;5013354;28;20049;-77
2021/08/18 04:03:52;;;;;;;22.23;11.52;;;;;;;20.52;69.70;99483.00;5012637;28;20041;-76
2021/08/18 04:06:17;;;;;;;19.02;10.15;;;;;;;20.76;69.62;99492.22;5012220;28;20044;-77
2021/08/18 04:08:43;;;;;;;17.10;10.38;;;;;;;20.94;69.56;99499.22;5012383;28;20064;-77
2021/08/18 04:11:11;;;;;;;19.23;10.38;;;;;;;21.05;68.96;99484.44;5009780;28;20041;-76
2021/08/18 04:13:37;;;;;;;17.42;10.52;;;;;;;21.30;68.43;99496.22;5011239;28;20042;-74
2021/08/18 04:16:02;;;;;;;19.75;10.55;;;;;;;21.44;67.73;99494.56;5011537;28;20065;-75
2021/08/18 04:18:28;;;;;;;18.45;10.32;;;;;;;21.51;67.13;99477.41;5011700;28;20160;-75
2021/08/18 04:20:54;;;;;;;20.05;10.27;;;;;;;21.72;67.22;99482.38;5009807;28;20080;-75
2021/08/18 04:23:20;;;;;;;19.67;10.25;;;;;;;21.83;66.02;99477.28;5010780;28;20397;-77
2021/08/18 04:25:45;;;;;;;21.98;9.95;;;;;;;22.03;66.23;99476.06;4993841;28;20501;-77
2021/08/18 04:28:11;;;;;;;15.65;8.95;;;;;;;22.27;65.46;99475.47;5011212;28;20053;-76
2021/08/18 04:30:37;;;;;;;20.30;9.55;;;;;;;22.39;65.02;99461.44;4993610;28;20046;-76
2021/08/18 04:33:03;;;;;;;16.20;9.55;;;;;;;22.60;64.25;99465.50;5009421;28;20045;-75
2021/08/18 04:35:29;;;;;;;20.33;9.48;;;;;;;22.83;64.01;99467.53;5009831;28;20049;-79
2021/08/18 04:37:54;;;;;;;17.90;9.90;;;;;;;22.62;63.26;99400.00;5012917;28;20429;-78
2021/08/18 04:40:21;;;;;;;17.10;9.48;;;;;;;23.16;62.01;99468.88;5016074;28;20042;-78
2021/08/18 04:42:48;;;;;;;16.77;9.15;;;;;;;23.22;61.64;99470.31;5017222;28;20044;-78
2021/08/18 04:45:30;;;;;;;14.50;8.13;;;;;;;23.28;60.74;99432.75;5016169;28;20547;-77
2021/08/18 04:47:55;;;;;;;18.52;9.18;;;;;;;23.43;60.33;99437.94;5015956;28;20045;-76
2021/08/18 04:50:21;;;;;;;16.58;9.23;;;;;;;23.90;59.42;99472.81;5017243;28;20053;-78
2021/08/18 04:52:47;;;;;;;14.38;9.02;;;;;;;24.02;58.80;99461.34;5018297;28;20235;-76
2021/08/18 04:55:14;;;;;;;16.27;8.82;;;;;;;24.29;58.62;99462.16;5015264;28;20034;-78
2021/08/18 04:57:40;;;;;;;14.05;8.57;;;;;;;24.50;58.06;99462.41;5014576;28;20045;-75
2021/08/18 05:00:07;;;;;;;15.65;8.82;;;;;;;24.71;57.42;99472.47;5017850;28;20513;-78
2021/08/18 05:02:35;;;;;;;18.85;9.07;;;;;;;24.87;57.01;99456.25;5019195;28;20104;-78
2021/08/18 05:05:03;;;;;;;16.88;8.40;;;;;;;25.04;56.50;99463.81;5023466;28;20048;-76
2021/08/18 05:07:29;;;;;;;16.77;8.43;;;;;;;25.19;55.80;99451.16;5031500;28;20101;-76
2021/08/18 05:09:55;;;;;;;16.25;8.85;;;;;;;25.21;55.19;99446.59;5024189;28;20041;-78
2021/08/18 05:12:21;;;;;;;21.20;8.88;;;;;;;25.44;54.54;99454.66;5015501;28;20457;-78
2021/08/18 05:14:46;;;;;;;17.98;9.45;;;;;;;25.53;54.27;99445.13;4998704;28;20081;-78
2021/08/18 05:17:15;;;;;;;14.98;8.18;;;;;;;25.84;53.57;99459.56;5031358;28;20140;-76
2021/08/18 05:19:41;;;;;;;16.40;8.73;;;;;;;25.90;52.99;99450.22;4998502;28;20041;-76
2021/08/18 05:22:09;;;;;;;17.30;8.85;;;;;;;26.17;52.58;99436.53;5014035;28;20045;-78
2021/08/18 05:24:36;;;;;;;18.27;8.77;;;;;;;26.84;52.85;99449.03;5013598;28;20456;-77
2021/08/18 05:27:02;;;;;;;12.80;8.18;;;;;;;27.76;50.95;99418.19;4997193;28;20049;-79
2021/08/18 05:29:28;;;;;;;19.48;9.38;;;;;;;29.56;49.51;99426.16;5013086;28;20042;-77
2021/08/18 05:31:53;;;;;;;18.05;9.15;;;;;;;31.22;46.93;99405.56;5014673;28;20065;-76
2021/08/18 05:34:20;;;;;;;17.60;8.63;;;;;;;32.43;42.96;99406.47;5017477;28;20041;-77
2021/08/18 05:36:46;;;;;;;13.65;8.23;;;;;;;33.71;41.00;99416.91;5033306;28;20049;-77
2021/08/18 05:39:13;;;;;;;11.32;7.95;;;;;;;34.66;37.79;99401.63;5032761;28;20042;-78
2021/08/18 05:41:39;;;;;;;12.55;7.97;;;;;;;35.77;36.05;99400.25;5025986;28;20501;-77
2021/08/18 05:44:05;;;;;;;14.77;8.07;;;;;;;36.79;34.20;99387.66;5012500;28;20057;-78
2021/08/18 05:46:40;;;;;;;15.20;7.55;;;;;;;37.67;33.55;99392.72;4997915;28;20146;-77
2021/08/18 05:49:09;;;;;;;12.55;8.32;;;;;;;38.30;31.17;99338.44;5012110;28;20136;-77
2021/08/18 05:51:52;;;;;;;15.20;8.18;;;;;;;38.99;29.63;99350.03;5012520;28;20429;-79
2021/08/18 05:54:21;;;;;;;13.60;8.60;;;;;;;39.67;28.23;99375.19;5012972;28;20050;-78
2021/08/18 05:56:48;;;;;;;11.68;8.05;;;;;;;40.67;27.93;99420.22;4997815;28;20052;-76
2021/08/18 05:59:14;;;;;;;11.93;7.95;;;;;;;41.63;25.88;99403.63;5013637;28;20136;-78
2021/08/18 06:01:42;;;;;;;10.68;7.88;;;;;;;41.87;24.94;99403.75;5014950;28;20057;-76
2021/08/18 06:04:10;;;;;;;13.25;7.88;;;;;;;42.57;23.90;99393.41;4997705;28;20050;-76
2021/08/18 06:06:39;;;;;;;12.25;7.97;;;;;;;43.40;22.92;99414.53;4998721;28;20449;-77
2021/08/18 06:09:05;;;;;;;15.40;8.18;;;;;;;44.15;22.05;99442.97;5013369;28;20097;-77
2021/08/18 06:11:31;;;;;;;11.38;7.60;;;;;;;44.78;21.41;99428.47;5014518;28;20042;-79
2021/08/18 06:13:57;;;;;;;14.63;8.02;;;;;;;44.88;20.47;99428.69;4980470;28;20501;-80
2021/08/18 06:16:25;;;;;;;11.27;7.72;;;;;;;45.42;20.29;99430.03;4980418;28;20034;-76
2021/08/18 06:18:52;;;;;;;13.77;7.47;;;;;;;45.71;19.50;99421.66;4992687;28;20417;-79
2021/08/18 06:21:18;;;;;;;12.65;7.68;;;;;;;46.08;18.75;99434.75;4995493;28;20042;-75
2021/08/18 06:23:46;;;;;;;14.50;8.00;;;;;;;45.83;18.50;99438.81;4996556;28;20088;-79
2021/08/18 06:26:14;;;;;;;12.02;7.90;;;;;;;45.99;17.77;99434.34;4995310;28;20463;-77
2021/08/18 06:28:40;;;;;;;12.63;8.13;;;;;;;46.49;17.77;99434.38;5007698;28;20039;-81
2021/08/18 06:31:06;;;;;;;16.83;8.10;;;;;;;46.88;17.28;99436.09;4974737;28;20050;-80
2021/08/18 06:33:31;;;;;;;13.82;7.97;;;;;;;47.44;16.65;99430.16;4999976;28;20038;-77
2021/08/18 06:35:57;;;;;;;12.40;7.38;;;;;;;48.07;16.13;99425.72;4993631;28;20417;-78
2021/08/18 06:38:33;;;;;;;18.45;7.97;;;;;;;48.18;15.68;99441.22;4995772;28;20045;-80
2021/08/18 06:40:58;;;;;;;17.85;8.10;;;;;;;48.30;15.18;99431.84;4977789;28;20038;-81
2021/08/18 06:43:25;;;;;;;13.23;8.32;;;;;;;47.71;15.20;99440.19;4978523;28;20144;-78
2021/08/18 06:45:51;;;;;;;12.80;8.73;;;;;;;46.47;15.72;99420.88;4993413;28;20398;-77
2021/08/18 06:48:18;;;;;;;11.95;7.57;;;;;;;45.81;16.30;99434.69;4996063;28;20173;-79
2021/08/18 06:53:34;;;;;;;14.30;6.88;;;;;;;47.17;15.02;99422.81;4995197;28;20069;-80
2021/08/18 06:56:09;;;;;;;11.50;7.07;;;;;;;47.38;15.16;99417.44;4963054;28;20421;-78
2021/08/18 06:58:37;;;;;;;15.15;8.00;;;;;;;48.29;14.44;99419.16;4999717;28;20065;-77
2021/08/18 07:01:05;;;;;;;13.33;7.20;;;;;;;48.78;14.27;99424.19;5009290;28;20034;-80
2021/08/18 07:03:37;;;;;;;13.98;8.23;;;;;;;49.18;13.58;99421.69;4998404;28;20049;-80
2021/08/18 07:06:08;;;;;;;10.23;7.60;;;;;;;48.84;13.41;99332.03;4959258;28;20047;-80
2021/08/18 07:08:42;;;;;;;11.90;7.68;;;;;;;49.56;12.51;99344.78;4966831;28;20038;-78
2021/08/18 07:11:08;;;;;;;16.53;7.63;;;;;;;49.56;12.63;99413.84;4995514;28;20042;-84
2021/08/18 07:13:39;;;;;;;12.38;7.68;;;;;;;49.39;13.06;99414.16;4994429;28;20046;-78
2021/08/18 07:16:08;;;;;;;12.57;7.45;;;;;;;50.09;12.63;99412.50;4995123;28;20050;-81
2021/08/18 07:18:36;;;;;;;14.75;7.97;;;;;;;50.15;12.18;99399.47;4999055;28;20034;-79
2021/08/18 07:21:06;;;;;;;20.05;7.63;;;;;;;49.08;12.70;99399.63;4993920;28;20133;-79
2021/08/18 07:23:53;;;;;;;12.80;8.48;;;;;;;47.78;13.73;99387.63;4977617;28;20050;-80
2021/08/18 07:26:22;;;;;;;9.25;7.32;;;;;;;48.17;13.79;99400.97;4975595;28;20042;-77
2021/08/18 07:28:52;;;;;;;15.15;7.75;;;;;;;48.98;13.00;99408.72;5010760;28;20040;-79
2021/08/18 07:31:17;;;;;;;9.23;7.05;;;;;;;48.75;12.84;99415.66;5011109;28;20038;-80
2021/08/18 07:33:46;;;;;;;13.43;8.18;;;;;;;48.72;12.72;99394.94;5007937;28;20395;-78
2021/08/18 07:36:15;;;;;;;11.32;7.25;;;;;;;47.47;13.12;99401.25;4976739;28;20042;-78
2021/08/18 07:38:41;;;;;;;10.75;7.80;;;;;;;46.90;14.38;99373.34;4994388;28;20046;-80
2021/08/18 07:41:07;;;;;;;10.95;8.45;;;;;;;46.15;14.30;99407.91;5013197;28;20097;-79
2021/08/18 07:43:35;;;;;;;14.43;7.03;;;;;;;44.79;15.52;99406.31;5007539;28;20048;-78
2021/08/18 07:46:03;;;;;;;10.02;7.22;;;;;;;43.73;16.49;99402.94;5023336;28;20041;-76
2021/08/18 07:48:31;;;;;;;8.88;7.13;;;;;;;43.21;16.72;99411.91;4993372;28;20128;-74
2021/08/18 07:50:58;;;;;;;11.68;6.82;;;;;;;43.07;17.27;99394.03;5010154;28;20037;-75
2021/08/18 07:53:30;;;;;;;10.43;7.53;;;;;;;43.10;17.27;99388.94;4993891;28;20493;-75
2021/08/18 07:55:55;;;;;;;15.13;7.80;;;;;;;43.20;17.79;99394.63;5013242;28;20041;-75
2021/08/18 07:58:22;;;;;;;10.20;7.05;;;;;;;42.81;17.97;99388.00;4994204;28;20037;-75
2021/08/18 08:00:47;;;;;;;10.48;7.20;;;;;;;42.26;18.02;99398.84;5009591;28;20664;-76
2021/08/18 08:03:14;;;;;;;10.10;6.90;;;;;;;41.63;19.02;99398.16;4998682;28;20046;-77
2021/08/18 08:05:39;;;;;;;13.48;7.63;;;;;;;42.32;19.02;99396.25;4974862;28;20057;-75
2021/08/18 08:08:05;;;;;;;11.80;7.35;;;;;;;42.42;18.30;99393.84;4962132;28;20052;-76
2021/08/18 08:10:31;;;;;;;13.35;7.10;;;;;;;42.70;18.19;99382.22;5011809;28;20144;-77
2021/08/18 08:12:57;;;;;;;11.45;7.07;;;;;;;42.82;18.37;99365.03;5010468;28;20045;-77
2021/08/18 08:15:25;;;;;;;11.80;7.07;;;;;;;41.76;18.62;99383.53;5011463;28;20433;-78
2021/08/18 08:17:54;;;;;;;11.60;7.50;;;;;;;40.36;19.62;99383.72;5000892;28;20154;-76
2021/08/18 08:20:23;;;;;;;12.68;7.35;;;;;;;39.24;21.17;99379.28;4990791;28;20128;-77
2021/08/18 08:22:48;;;;;;;8.77;7.13;;;;;;;38.27;22.07;99389.41;4973619;28;20422;-77
2021/08/18 08:25:14;;;;;;;11.25;7.60;;;;;;;37.50;22.81;99389.50;4973916;28;20053;-77
2021/08/18 08:27:49;;;;;;;12.60;7.00;;;;;;;36.55;23.65;99384.31;5000661;28;20042;-77
2021/08/18 08:30:18;;;;;;;10.98;7.97;;;;;;;35.70;25.12;99386.66;5010922;28;20438;-75
2021/08/18 08:32:44;;;;;;;15.77;7.03;;;;;;;35.33;25.28;99389.22;5009027;28;20511;-79
2021/08/18 08:35:10;;;;;;;11.15;7.60;;;;;;;35.39;25.94;99390.34;5011294;28;20135;-77
2021/08/18 08:37:36;;;;;;;14.30;7.55;;;;;;;36.33;25.78;99389.69;5012143;28;20029;-75
2021/08/18 08:40:05;;;;;;;13.57;7.05;;;;;;;38.94;23.88;99374.28;5012160;28;20046;-76
2021/08/18 08:42:35;;;;;;;18.45;8.13;;;;;;;41.51;21.15;99368.03;5014617;28;20049;-77
2021/08/18 08:45:02;;;;;;;10.50;7.05;;;;;;;42.95;19.66;99374.91;5013636;28;20042;-77
2021/08/18 08:47:28;;;;;;;7.75;6.60;;;;;;;44.48;18.26;99381.09;4996601;28;20046;-75
2021/08/18 08:49:55;;;;;;;11.45;6.95;;;;;;;44.95;16.89;99374.47;5014208;28;20037;-77
2021/08/18 08:52:21;;;;;;;10.75;7.60;;;;;;;45.06;17.04;99377.38;5013778;28;20033;-76
2021/08/18 08:54:48;;;;;;;10.10;7.22;;;;;;;45.57;16.79;99364.34;5031630;28;20037;-76
2021/08/18 08:57:19;;;;;;;9.77;7.13;;;;;;;46.34;16.08;99380.03;5040918;28;20041;-76
2021/08/18 08:59:46;;;;;;;10.30;6.85;;;;;;;46.80;15.10;99370.53;5021548;28;20056;-76
2021/08/18 09:02:15;;;;;;;13.30;7.68;;;;;;;46.94;15.41;99359.91;5012093;28;20038;-77
2021/08/18 09:04:44;;;;;;;12.88;7.75;;;;;;;46.24;15.67;99360.69;4985283;28;20088;-78
2021/08/18 09:07:16;;;;;;;12.82;6.07;;;;;;;46.52;16.45;99367.00;5011535;28;20041;-75
2021/08/18 09:09:50;;;;;;;12.13;7.28;;;;;;;45.30;16.40;99360.72;5011312;28;20038;-75
2021/08/18 09:12:19;;;;;;;10.85;7.20;;;;;;;44.68;17.22;99366.91;5010289;28;20084;-76
2021/08/18 09:14:44;;;;;;;7.93;6.78;;;;;;;44.94;16.96;99363.75;5012663;28;20062;-76
2021/08/18 09:17:33;;;;;;;11.20;7.50;;;;;;;43.71;17.53;99369.50;5001673;28;20225;-76
2021/08/18 09:20:13;;;;;;;10.05;7.10;;;;;;;44.08;17.70;99366.41;5010327;28;20635;-75
2021/08/18 09:22:43;;;;;;;;;;;;;;;44.41;17.37;99363.94;5013372;28;20077;-75
2021/08/18 09:25:21;;;;;;;12.40;6.90;;;;;;;43.21;17.74;99362.66;5014225;28;19921;-76
2021/08/18 09:28:13;;;;;;;12.05;7.63;;;;;;;42.06;19.03;99366.38;5016352;28;20045;-77
2021/08/18 09:30:44;;;;;;;13.10;7.93;;;;;;;41.67;19.17;99344.78;5017244;28;20030;-78
2021/08/18 09:33:15;;;;;;;8.55;7.03;;;;;;;42.21;18.10;99344.09;5027221;28;20046;-76
2021/08/18 09:35:44;;;;;;;9.77;7.47;;;;;;;42.83;18.32;99331.13;4997746;28;20039;-77
2021/08/18 09:38:31;;;;;;;;;;;;;;;;;;;;;
2021/08/18 09:41:01;;;;;;;8.55;6.80;;;;;;;45.46;16.16;99340.59;5001242;28;20073;-75
2021/08/18 09:43:30;;;;;;;8.95;6.30;;;;;;;45.85;15.74;99354.25;5011318;28;20433;-78
2021/08/18 09:46:00;;;;;;;;;;;;;;;46.26;15.24;99350.25;5020171;28;20034;-75
2021/08/18 09:48:39;;;;;;;12.40;6.93;;;;;;;46.06;15.62;99299.53;5030495;28;19932;-76
2021/08/18 09:51:08;;;;;;;9.85;7.00;;;;;;;46.72;15.36;99339.66;5024316;28;20137;-76
2021/08/18 09:53:39;;;;;;;8.27;6.93;;;;;;;47.55;14.37;99347.56;5006981;28;20035;-76
2021/08/18 09:56:07;;;;;;;12.20;7.22;;;;;;;47.53;14.79;99349.75;4997393;28;20100;-76
2021/08/18 09:58:37;;;;;;;10.48;6.90;;;;;;;47.89;14.36;99338.88;4995979;28;20564;-76
2021/08/18 10:01:10;;;;;;;12.32;7.00;;;;;;;48.37;14.08;99345.00;4995059;28;20055;-77
2021/08/18 10:03:41;;;;;;;13.93;7.20;;;;;;;47.90;14.18;99333.09;5011941;28;20046;-77
2021/08/18 10:06:10;;;;;;;11.07;7.55;;;;;;;47.18;14.36;99341.06;5016289;28;20044;-77
2021/08/18 10:08:38;;;;;;;10.65;7.30;;;;;;;46.69;14.42;99336.63;5033839;28;20056;-77
2021/08/18 10:11:09;;;;;;;9.25;7.55;;;;;;;46.46;15.28;99325.72;4982974;28;20060;-77
2021/08/18 10:13:35;;;;;;;11.02;7.43;;;;;;;46.39;15.38;99316.00;5017899;28;20034;-76
2021/08/18 10:16:01;;;;;;;10.23;7.40;;;;;;;46.43;14.30;99312.53;5018696;28;20049;-75
2021/08/18 10:18:32;;;;;;;11.07;7.53;;;;;;;46.27;14.56;99316.19;5018218;28;20551;-76
2021/08/18 10:21:00;;;;;;;15.75;7.05;;;;;;;46.06;15.17;99301.47;5001179;28;20179;-75
2021/08/18 10:23:51;;;;;;;10.18;7.25;;;;;;;45.84;14.97;99319.63;4999112;28;20038;-74
2021/08/18 10:26:35;;;;;;;15.98;7.07;;;;;;;44.51;15.66;99303.00;5016207;28;20050;-76
2021/08/18 10:29:40;;;;;;;11.02;7.82;;;;;;;44.48;16.33;99295.28;5020512;28;20564;-77
2021/08/18 10:32:08;;;;;;;9.88;7.95;;;;;;;44.68;15.72;99298.38;4994596;28;20058;-75
2021/08/18 10:34:42;;;;;;;11.25;7.45;;;;;;;44.56;15.94;99292.13;4985320;28;20038;-78
2021/08/18 10:37:21;;;;;;;12.05;7.18;;;;;;;44.07;16.01;99295.41;4997940;28;20046;-78
2021/08/18 10:40:12;;;;;;;12.57;7.82;;;;;;;43.18;16.92;99286.53;5000054;28;20050;-75
2021/08/18 10:42:40;;;;;;;11.18;7.15;;;;;;;41.58;18.10;99293.47;5027982;28;20080;-81
2021/08/18 10:45:18;;;;;;;11.45;7.20;;;;;;;40.61;18.64;99299.25;5027442;28;20034;-76
2021/08/18 10:47:44;;;;;;;8.88;7.35;;;;;;;39.53;19.67;99257.41;5028682;28;20084;-80
2021/08/18 10:50:13;;;;;;;10.68;7.50;;;;;;;39.01;20.37;99288.13;5009323;28;20038;-78
2021/08/18 10:52:42;;;;;;;12.18;7.90;;;;;;;38.45;20.82;99292.94;5031135;28;20109;-80
2021/08/18 10:55:09;;;;;;;11.80;7.50;;;;;;;38.03;21.88;99301.25;5046854;28;20156;-78
2021/08/18 10:57:38;;;;;;;10.18;7.30;;;;;;;37.72;22.42;99297.16;5029195;28;20068;-77
2021/08/18 11:00:40;;;;;;;15.45;7.72;;;;;;;37.34;22.76;99289.44;4990666;28;20041;-81
2021/08/18 11:03:13;;;;;;;12.55;7.10;;;;;;;37.07;23.12;99286.59;5013399;28;20135;-78
2021/08/18 11:05:39;;;;;;;10.90;7.00;;;;;;;36.86;23.87;99280.19;5014356;28;20074;-77
2021/08/18 11:08:10;;;;;;;13.52;8.48;;;;;;;36.46;24.10;99247.38;4997176;28;20053;-78
2021/08/18 11:10:37;;;;;;;9.02;7.57;;;;;;;36.30;24.61;99270.94;5015444;28;20037;-79
2021/08/18 11:13:06;;;;;;;11.90;7.07;;;;;;;36.23;24.76;99270.06;5014705;28;20051;-82
2021/08/18 11:15:31;;;;;;;11.77;8.00;;;;;;;35.92;25.31;99271.19;5016787;28;20084;-78
2021/08/18 11:17:58;;;;;;;9.45;7.22;;;;;;;35.48;25.42;99262.16;5026481;28;20050;-80
2021/08/18 11:20:27;;;;;;;10.93;6.88;;;;;;;35.05;26.55;99254.72;5001934;28;20065;-78
2021/08/18 11:22:58;;;;;;;;;;;;;;;34.77;26.98;99268.81;5014129;28;20403;-78
2021/08/18 11:25:25;;;;;;;12.80;7.20;;;;;;;34.29;26.67;99244.75;5012320;28;19928;-78
2021/08/18 11:27:56;;;;;;;9.43;6.78;;;;;;;34.33;27.39;99256.03;4995965;28;20737;-79
2021/08/18 11:30:27;;;;;;;13.32;7.32;;;;;;;34.51;27.82;99263.84;5000216;28;20068;-77
2021/08/18 11:33:21;;;;;;;14.70;7.60;;;;;;;34.62;27.54;99258.00;5025495;28;20137;-78